• Join FlightAware (Why Join?)
  • Login
  • US Flag 
11:09PM EST


 

Airport Tracker/Info


-or-


 

Live Flight TrackerFlight Track Log ✈ AWE140 ✈ 13-May-2013 ✈ KEWR - KPHX

Flight Track Log - Related Links

Times and Time Zones

All times are in EDT time to prevent confusion due to time zone crossing. See the AWE140 flight status page for this flight to view local times or setup timezone preferences in your user account.

Time Position Orientation Groundspeed Altitude Reporting Facility
EDT Latitude Longitude Course Direction KTS MPH feet Rate Location/Type
04:44PM 40.6333 -74.2167 252° West 222 255 2,600  Level New York TRACON
04:45PM 40.6500 -74.3000 285° West 247 284 6,200 3,600 Climbing New York TRACON
04:46PM 40.6667 -74.3667 288° West 240 276 9,800 2,700 Climbing New York TRACON
04:47PM 40.7752 -74.9424 294° West  Level FlightAware Approximate
04:47PM 40.6833 -74.4667 282° West 252 290 11,700  Level New York TRACON
04:48PM 40.7914 -75.0995 303° West  Level FlightAware Approximate
04:48PM 40.7000 -74.5667 282° West 304 350 13,500  Level New York TRACON
04:49PM 40.7821 -75.2550 252° West  Level FlightAware Approximate
04:49PM 40.7333 -74.6833 291° West 336 387 15,400  Level New York TRACON
04:49PM 40.7347 -74.7311 272° West 350 403 16,000 1,140 Climbing New York Center
04:50PM 40.7594 -74.8642 284° West 352 405 17,000 900 Climbing New York Center
04:51PM 40.7819 -74.9969 283° West 367 422 17,900 2,220 Climbing New York Center
04:52PM 40.7800 -75.1036 269° West 367 422 21,500 3,060 Climbing New York Center
04:53PM 40.7553 -75.2089 253° West 325 374 23,900 2,280 Climbing New York Center
04:54PM 40.7283 -75.3167 252° West 313 360 26,100 1,740 Climbing New York Center
04:55PM 40.7014 -75.4189 251° West 306 352 27,400 1,140 Climbing New York Center
04:56PM 40.6764 -75.5239 253° West 306 352 28,400 960 Climbing New York Center
04:57PM 40.6467 -75.6397 251° West 318 366 29,400 960 Climbing New York Center
04:58PM 40.6189 -75.7581 253° West 328 377 30,400 840 Climbing New York Center
04:59PM 40.5847 -75.8731 249° West 336 387 31,200 780 Climbing New York Center
05:00PM 40.5336 -75.9922 241° Southwest 356 410 32,000 660 Climbing New York Center
05:01PM 40.4883 -76.1169 245° Southwest 361 415 32,600 540 Climbing New York Center
05:02PM 40.4389 -76.2414 242° Southwest 379 436 33,200 540 Climbing New York Center
05:03PM 40.3892 -76.3708 243° Southwest 389 448 33,700 360 Climbing New York Center
05:04PM 40.3472 -76.5036 248° West 402 463 34,000 120 Climbing New York Center
05:05PM 40.3336 -76.6550 263° West 408 470 34,000  Level New York Center
05:06PM 40.3158 -76.8033 261° West 413 475 34,000  Level New York Center
05:07PM 40.2975 -76.9569 261° West 425 489 34,000  Level New York Center
05:08PM 40.2806 -77.1186 262° West 436 502 34,000  Level New York Center
05:10PM 40.2417 -77.4794 262° West 442 509 34,000  Level Cleveland Center
05:11PM 40.2250 -77.6408 262° West 447 514 34,000  Level Cleveland Center
05:12PM 40.2061 -77.7992 261° West 447 514 34,000  Level Cleveland Center
05:13PM 40.1833 -77.9797 261° West 452 520 34,000  Level Cleveland Center
05:14PM 40.1725 -78.1431 265° West 452 520 34,000  Level Cleveland Center
05:15PM 40.1631 -78.3036 266° West 452 520 34,000  Level Cleveland Center
05:16PM 40.1558 -78.4642 267° West 452 520 34,000  Level Cleveland Center
05:17PM 40.1483 -78.6247 267° West 447 514 34,000  Level Cleveland Center
05:18PM 40.1383 -78.7853 265° West 447 514 34,000  Level Cleveland Center
05:19PM 40.1283 -78.9458 265° West 447 514 34,000  Level Cleveland Center
05:20PM 40.1203 -79.1061 266° West 447 514 34,000  Level Cleveland Center
05:21PM 40.1097 -79.2667 265° West 447 514 34,000  Level Cleveland Center
05:22PM 40.1031 -79.4267 267° West 447 514 34,000  Level Cleveland Center
05:23PM 40.0919 -79.5872 265° West 447 514 34,000  Level Cleveland Center
05:24PM 40.0828 -79.7500 266° West 447 514 34,000  Level Cleveland Center
05:25PM 40.0714 -79.9103 265° West 442 509 34,000  Level Cleveland Center
05:26PM 40.0619 -80.0706 266° West 442 509 34,000  Level Cleveland Center
05:27PM 40.0500 -80.2333 265° West 442 509 34,000  Level Cleveland Center
05:28PM 40.0419 -80.3742 266° West 442 509 34,000  Level Cleveland Center
05:29PM 40.0297 -80.5369 264° West 447 514 34,000  Level Cleveland Center
05:30PM 40.0150 -80.6969 263° West 447 514 34,000  Level Cleveland Center
05:31PM 40.0042 -80.8542 265° West 441 507 34,000  Level Cleveland Center
05:32PM 39.9914 -81.0139 264° West 441 507 34,000  Level Cleveland Center
05:33PM 39.9775 -81.1519 263° West 439 505 34,000  Level Indianapolis Center
05:34PM 39.9633 -81.3372 264° West 434 499 34,000 -60 Level Indianapolis Center
05:35PM 39.9508 -81.4911 264° West 437 503 33,900  Descending Indianapolis Center
05:36PM 39.9383 -81.6528 264° West 443 510 34,000  Climbing Indianapolis Center
05:37PM 39.9242 -81.8122 263° West 440 506 34,000 -60 Level Indianapolis Center
05:38PM 39.9119 -81.9669 264° West 429 494 33,900 -60 Descending Indianapolis Center
05:39PM 39.8983 -82.1244 264° West 434 499 33,900  Level Indianapolis Center
05:40PM 39.8833 -82.3000 264° West 417 480 33,900  Level Indianapolis Center
05:41PM 39.8689 -82.4511 263° West 415 478 33,900  Level Indianapolis Center
05:42PM 39.8567 -82.6003 264° West 413 475 33,900  Level Indianapolis Center
05:44PM 39.8419 -82.7481 263° West 409 471 34,000 900 Climbing Indianapolis Center
05:45PM 39.8286 -82.8981 263° West 411 473 35,800 960 Climbing Indianapolis Center
05:46PM 39.8156 -83.0408 263° West 398 458 36,000 60 Climbing Indianapolis Center
05:47PM 39.8008 -83.1911 263° West 411 473 36,000  Level Indianapolis Center
05:48PM 39.7861 -83.3442 263° West 417 480 36,000  Level Indianapolis Center
05:49PM 39.7686 -83.5108 262° West 419 482 36,000 -60 Level Indianapolis Center
05:50PM 39.7544 -83.6542 263° West 417 480 35,900 -60 Descending Indianapolis Center
05:51PM 39.7394 -83.8081 263° West 422 486 35,900  Level Indianapolis Center
05:52PM 39.7208 -83.9875 262° West 426 490 36,000  Climbing Indianapolis Center
05:53PM 39.7056 -84.1444 263° West 433 498 35,900  Descending Indianapolis Center
05:54PM 39.6878 -84.3022 262° West 438 504 36,000  Climbing Indianapolis Center
05:55PM 39.6717 -84.4583 262° West 435 501 35,900  Descending Indianapolis Center
05:56PM 39.6539 -84.6161 262° West 437 503 36,000  Climbing Indianapolis Center
05:57PM 39.6372 -84.7775 262° West 449 517 36,000  Level Indianapolis Center
05:58PM 39.6161 -84.9622 262° West 455 524 36,000  Level Indianapolis Center
05:59PM 39.5981 -85.1222 262° West 452 520 36,000  Level Indianapolis Center
06:00PM 39.5797 -85.2833 262° West 452 520 36,000  Level Indianapolis Center
06:01PM 39.5617 -85.4436 262° West 451 519 36,000  Level Indianapolis Center
06:02PM 39.5425 -85.6042 261° West 452 520 36,000  Level Indianapolis Center
06:03PM 39.5231 -85.7650 261° West 452 520 36,000  Level Indianapolis Center
06:04PM 39.5000 -85.9603 261° West 455 524 36,000  Level Indianapolis Center
06:05PM 39.4797 -86.1250 261° West 459 528 36,000  Level Indianapolis Center
06:06PM 39.4592 -86.2894 261° West 459 528 36,000  Level Indianapolis Center
06:07PM 39.4394 -86.4531 261° West 458 527 36,000  Level Indianapolis Center
06:08PM 39.4192 -86.6161 261° West 456 525 36,000  Level Indianapolis Center
06:09PM 39.3989 -86.7769 261° West 454 522 36,000  Level Indianapolis Center
06:10PM 39.3781 -86.9375 261° West 453 521 36,000  Level Indianapolis Center
06:11PM 39.3531 -87.1303 261° West 456 525 36,000  Level Indianapolis Center
06:12PM 39.3317 -87.2917 260° West 456 525 36,000  Level Indianapolis Center
06:13PM 39.3094 -87.4533 260° West 458 527 36,000  Level Indianapolis Center
06:15PM 39.2881 -87.6139 260° West 458 527 36,000  Level Indianapolis Center
06:16PM 39.2650 -87.7817 260° West 456 525 36,000  Level Indianapolis Center
06:17PM 39.2417 -87.9439 260° West 460 529 36,000  Level Indianapolis Center
06:17PM 39.2281 -88.0436 260° West 459 528 36,000  Level Kansas City Center
06:18PM 39.2047 -88.2064 260° West 462 532 36,000  Level Kansas City Center
06:19PM 39.1806 -88.3694 259° West 463 533 36,000  Level Kansas City Center
06:20PM 39.1572 -88.5328 260° West 464 534 36,000  Level Kansas City Center
06:21PM 39.1314 -88.7122 260° West 462 532 36,000  Level Kansas City Center
06:22PM 39.1072 -88.8739 259° West 462 532 36,000  Level Kansas City Center
06:23PM 39.0831 -89.0533 260° West 467 537 36,000  Level Kansas City Center
06:24PM 39.0592 -89.2153 259° West 464 534 36,000  Level Kansas City Center
06:25PM 39.0339 -89.3783 259° West 466 536 36,000  Level Kansas City Center
06:26PM 39.0086 -89.5536 260° West 466 536 36,000  Level Kansas City Center
06:27PM 38.9819 -89.7161 258° West 466 536 36,000  Level Kansas City Center
06:28PM 38.9544 -89.8919 259° West 470 541 36,000  Level Kansas City Center
06:29PM 38.9303 -90.0483 259° West 471 542 36,000  Level Kansas City Center
06:31PM 38.9047 -90.2203 259° West 469 540 36,000  Level Kansas City Center
06:32PM 38.8783 -90.3883 259° West 477 549 36,000  Level Kansas City Center
06:33PM 38.8522 -90.5533 259° West 471 542 36,000  Level Kansas City Center
06:34PM 38.8283 -90.7314 260° West 466 536 36,000  Level Kansas City Center
06:35PM 38.8081 -90.8939 261° West 466 536 36,000  Level Kansas City Center
06:36PM 38.7858 -91.0567 260° West 467 537 36,000  Level Kansas City Center
06:37PM 38.7644 -91.2200 261° West 467 537 36,000  Level Kansas City Center
06:38PM 38.7392 -91.4169 261° West 467 537 36,000  Level Kansas City Center
06:39PM 38.7156 -91.5817 260° West 470 541 36,000  Level Kansas City Center
06:40PM 38.6936 -91.7372 260° West 471 542 36,000  Level Kansas City Center
06:41PM 38.6694 -91.8997 259° West 468 539 36,000  Level Kansas City Center
06:42PM 38.6417 -92.0967 260° West 469 540 36,000  Level Kansas City Center
06:43PM 38.6183 -92.2586 260° West 466 536 36,000  Level Kansas City Center
06:44PM 38.5947 -92.4211 260° West 466 536 36,000  Level Kansas City Center
06:45PM 38.5703 -92.5811 259° West 462 532 36,000  Level Kansas City Center
06:46PM 38.5456 -92.7447 259° West 467 537 36,000  Level Kansas City Center
06:47PM 38.5172 -92.9367 259° West 464 534 36,000  Level Kansas City Center
06:48PM 38.4931 -93.0928 259° West 454 522 36,000  Level Kansas City Center
06:49PM 38.4697 -93.2486 259° West 449 517 36,000  Level Kansas City Center
06:50PM 38.4461 -93.4058 259° West 451 519 36,000  Level Kansas City Center
06:51PM 38.4217 -93.5628 259° West 452 520 36,000  Level Kansas City Center
06:52PM 38.3958 -93.7214 258° West 455 524 36,000  Level Kansas City Center
06:53PM 38.3667 -93.9097 259° West 453 521 36,000  Level Kansas City Center
06:54PM 38.3403 -94.0675 258° West 454 522 36,000  Level Kansas City Center
06:55PM 38.3156 -94.2164 258° West 453 521 36,000 -60 Level Kansas City Center
06:56PM 38.2872 -94.3875 258° West 446 513 35,900  Descending Kansas City Center
06:57PM 38.2636 -94.5353 259° West 445 512 36,000  Climbing Kansas City Center
06:58PM 38.2406 -94.6864 259° West 448 516 36,000  Level Kansas City Center
06:59PM 38.2117 -94.8642 258° West 453 521 36,000  Level Kansas City Center
07:00PM 38.1881 -95.0158 259° West 456 525 36,000  Level Kansas City Center
07:01PM 38.1578 -95.1997 258° West 468 539 36,000  Level Kansas City Center
07:03PM 38.1314 -95.3514 258° West 461 531 36,000  Level Kansas City Center
07:04PM 38.1014 -95.5303 258° West 462 532 36,000  Level Kansas City Center
07:05PM 38.0750 -95.6828 258° West 461 531 36,000  Level Kansas City Center
07:06PM 38.0433 -95.8617 257° West 465 535 36,000  Level Kansas City Center
07:07PM 38.0178 -96.0142 258° West 463 533 36,000  Level Kansas City Center
07:08PM 37.9917 -96.1789 259° West 461 531 36,000  Level Kansas City Center
07:09PM 37.9650 -96.3369 258° West 460 529 36,000  Level Kansas City Center
07:10PM 37.9383 -96.4944 258° West 459 528 36,000  Level Kansas City Center
07:11PM 37.9125 -96.6528 258° West 459 528 36,000  Level Kansas City Center
07:12PM 37.8792 -96.8431 258° West 460 529 36,000  Level Kansas City Center
07:13PM 37.8514 -97.0014 258° West 461 531 36,000  Level Kansas City Center
07:14PM 37.8228 -97.1594 257° West 459 528 36,000  Level Kansas City Center
07:15PM 37.7939 -97.3183 257° West 462 532 36,000  Level Kansas City Center
07:16PM 37.7650 -97.4719 257° West 462 532 36,000  Level Kansas City Center
07:17PM 37.7292 -97.6628 257° West 464 534 36,000  Level Kansas City Center
07:18PM 37.6994 -97.8228 257° West 466 536 36,000  Level Kansas City Center
07:19PM 37.6692 -97.9817 257° West 467 537 36,000  Level Kansas City Center
07:20PM 37.6378 -98.1439 256° West 467 537 36,000  Level Kansas City Center
07:21PM 37.6036 -98.3139 256° West 469 540 36,000  Level Kansas City Center
07:22PM 37.5719 -98.4742 256° West 470 541 36,000  Level Kansas City Center
07:23PM 37.5400 -98.6353 256° West 473 544 36,000  Level Kansas City Center
07:24PM 37.5081 -98.7953 256° West 471 542 36,000  Level Kansas City Center
07:25PM 37.4744 -98.9564 255° West 475 547 36,000  Level Kansas City Center
07:26PM 37.4422 -99.1169 256° West 473 544 36,000  Level Kansas City Center
07:27PM 37.4078 -99.2747 255° West 471 542 36,000  Level Kansas City Center
07:28PM 37.3664 -99.4739 255° West 472 543 36,000  Level Kansas City Center
07:29PM 37.3350 -99.6261 256° West 470 541 36,000  Level Kansas City Center
07:30PM 37.3033 -99.7769 255° West 467 537 36,000  Level Kansas City Center
07:31PM 37.2661 -99.9517 255° West 464 534 36,000  Level Kansas City Center
07:33PM 37.2342 -100.1022 255° West 464 534 36,000  Level Kansas City Center
07:34PM 37.1964 -100.2761 255° West 463 533 36,000  Level Kansas City Center
07:35PM 37.1633 -100.4267 255° West 464 534 36,000  Level Kansas City Center
07:36PM 37.1250 -100.6025 255° West 466 536 36,000  Level Kansas City Center
07:37PM 37.0919 -100.7536 255° West 467 537 36,000  Level Kansas City Center
07:38PM 37.0519 -100.9311 254° West 471 542 36,000  Level Kansas City Center
07:39PM 37.0106 -101.0806 251° West 473 544 36,000  Level Kansas City Center
07:40PM 36.9647 -101.2275 249° West 473 544 36,000  Level Kansas City Center
07:41PM 36.9108 -101.3981 248° West 472 543 36,000  Level Kansas City Center
07:41PM 36.8878 -101.4711 248° West 473 544 36,000  Level Albuquerque Center
07:42PM 36.8408 -101.6172 248° West 473 544 36,000  Level Albuquerque Center
07:43PM 36.7850 -101.7942 249° West 484 557 36,000  Level Albuquerque Center
07:44PM 36.7361 -101.9469 248° West 493 567 36,000  Level Albuquerque Center
07:45PM 36.6933 -102.1325 254° West 499 574 36,000  Level Albuquerque Center
07:46PM 36.6592 -102.3014 256° West 504 580 36,000  Level Albuquerque Center
07:47PM 36.6219 -102.4681 254° West 504 580 36,000  Level Albuquerque Center
07:48PM 36.5867 -102.6344 255° West 502 578 36,000  Level Albuquerque Center
07:49PM 36.5506 -102.8011 255° West 501 577 36,000  Level Albuquerque Center
07:51PM 36.5117 -102.9811 255° West 504 580 36,000  Level Albuquerque Center
07:52PM 36.4742 -103.1508 255° West 504 580 36,000  Level Albuquerque Center
07:53PM 36.4369 -103.3181 255° West 503 579 36,000  Level Albuquerque Center
07:54PM 36.3992 -103.4883 255° West 507 583 36,000  Level Albuquerque Center
07:55PM 36.3544 -103.6842 254° West 504 580 36,000  Level Albuquerque Center
07:56PM 36.3161 -103.8519 254° West 504 580 36,000  Level Albuquerque Center
07:57PM 36.2775 -104.0219 254° West 507 583 36,000  Level Albuquerque Center
07:58PM 36.2389 -104.1883 254° West 505 581 36,000  Level Albuquerque Center
07:59PM 36.1994 -104.3533 254° West 500 575 36,000  Level Albuquerque Center
08:00PM 36.1606 -104.5214 254° West 505 581 36,000  Level Albuquerque Center
08:01PM 36.1219 -104.6872 254° West 502 578 36,000  Level Albuquerque Center
08:02PM 36.0811 -104.8547 253° West 505 581 36,000  Level Albuquerque Center
08:03PM 36.0397 -105.0253 253° West 512 589 36,000  Level Albuquerque Center
08:04PM 35.9925 -105.2208 253° West 509 586 36,000  Level Albuquerque Center
08:05PM 35.9514 -105.3892 253° West 510 587 36,000  Level Albuquerque Center
08:06PM 35.9114 -105.5539 253° West 506 582 36,000  Level Albuquerque Center
08:07PM 35.8711 -105.7158 253° West 500 575 36,000  Level Albuquerque Center
08:08PM 35.8328 -105.8747 253° West 489 563 36,000  Level Albuquerque Center
08:09PM 35.7922 -106.0350 253° West 490 564 36,000  Level Albuquerque Center
08:10PM 35.7525 -106.1969 253° West 494 568 36,000  Level Albuquerque Center
08:11PM 35.7078 -106.3772 253° West 493 567 36,000  Level Albuquerque Center
08:12PM 35.6681 -106.5311 252° West 493 567 36,000  Level Albuquerque Center
08:13PM 35.6233 -106.7086 253° West 493 567 36,000  Level Albuquerque Center
08:14PM 35.5839 -106.8672 253° West 490 564 36,000  Level Albuquerque Center
08:15PM 35.5417 -107.0253 252° West 492 566 36,000  Level Albuquerque Center
08:16PM 35.4983 -107.1944 253° West 490 564 36,000  Level Albuquerque Center
08:17PM 35.4569 -107.3481 252° West 493 567 36,000  Level Albuquerque Center
08:18PM 35.4100 -107.5261 252° West 492 566 36,000  Level Albuquerque Center
08:19PM 35.3683 -107.6817 252° West 496 571 36,000  Level Albuquerque Center
08:20PM 35.3197 -107.8603 252° West 494 568 36,000  Level Albuquerque Center
08:21PM 35.2800 -108.0142 252° West 494 568 36,000  Level Albuquerque Center
08:22PM 35.2383 -108.1678 252° West 495 570 36,000  Level Albuquerque Center
08:23PM 35.1889 -108.3475 251° West 496 571 36,000  Level Albuquerque Center
08:24PM 35.1483 -108.5017 252° West 497 572 36,000  Level Albuquerque Center
08:25PM 35.0986 -108.6822 251° West 499 574 36,000  Level Albuquerque Center
08:26PM 35.0558 -108.8350 251° West 496 571 36,000  Level Albuquerque Center
08:27PM 35.0136 -108.9886 251° West 496 571 36,000  Level Albuquerque Center
08:28PM 34.9633 -109.1667 251° West 496 571 36,000  Level Albuquerque Center
08:30PM 34.9100 -109.3139 246° West 495 570 36,000  Level Albuquerque Center
08:31PM 34.8456 -109.4856 245° Southwest 497 572 36,000  Level Albuquerque Center
08:32PM 34.7908 -109.6289 245° Southwest 491 565 36,000  Level Albuquerque Center
08:33PM 34.7361 -109.7789 246° West 498 573 36,000  Level Albuquerque Center
08:34PM 34.6547 -109.9375 238° Southwest 497 572 36,000 -1,080 Level Albuquerque Center
08:35PM 34.5836 -110.0739 238° Southwest 497 572 33,800 -2,760 Descending Albuquerque Center
08:36PM 34.4992 -110.2347 238° Southwest 502 578 30,400 -2,880 Descending Albuquerque Center
08:37PM 34.4278 -110.3744 238° Southwest 505 581 28,000 -2,160 Descending Albuquerque Center
08:38PM 34.3583 -110.5181 240° Southwest 493 567 26,000 -2,040 Descending Albuquerque Center
08:39PM 34.2903 -110.6456 237° Southwest 459 528 23,800 -2,340 Descending Albuquerque Center
08:40PM 34.2183 -110.7681 235° Southwest 451 519 21,300 -2,400 Descending Albuquerque Center
08:41PM 34.1542 -110.8906 238° Southwest 438 504 18,900 -2,100 Descending Albuquerque Center
08:42PM 34.0606 -110.9644 213° Southwest 415 478 17,100 -2,100 Descending Albuquerque Center
08:43PM 34.0114 -111.0803 243° Southwest 392 451 14,700 -2,400 Descending Albuquerque Center
08:44PM 33.9594 -111.2153 245° Southwest 375 432 12,300 -1,680 Descending Albuquerque Center
08:45PM 33.9158 -111.3200 243° Southwest 356 410 11,300 -840 Descending Albuquerque Center
08:46PM 33.8767 -111.4086 242° Southwest 312 359 10,600 -840 Descending Albuquerque Center
08:47PM 33.8086 -111.4669 215° Southwest 301 346 9,600 -1,260 Descending Albuquerque Center
08:48PM 33.7414 -111.5244 215° Southwest 296 341 8,100 -840 Descending Albuquerque Center
08:49PM 33.6797 -111.5753 214° Southwest 275 316 8,000 -60 Descending Albuquerque Center
08:50PM 33.6114 -111.5886 189° South 252 290 8,000 -300 Level Albuquerque Center
08:51PM 33.5408 -111.6050 191° South 255 293 7,400 -960 Descending Albuquerque Center
08:52PM 33.4719 -111.6300 197° South 260 299 6,100 -720 Descending Albuquerque Center
08:53PM 33.4422 -111.6969 242° Southwest 229 264 6,000 -840 Descending Albuquerque Center
08:54PM 33.4414 -111.7797 269° West 209 241 4,400 -1,560 Descending Albuquerque Center